AB1OC Weather Reports


Display with metric or nautical units.
time (UTC)temp
F
wind
direction
speed
MPH
gust
MPH
rain 1hr
in
rain 24hr
in
rain mn
in
humidity
%
barometer
mb
20210624094538 45 290 0.0 0.0 0.00 0.00 0.00 93 1029.3
20210624093028 45 290 0.0 0.0 0.00 0.00 0.00 93 1029.0
20210624090034 46 290 0.0 0.0 0.00 0.00 0.00 93 1028.7
20210624084529 46 290 0.0 0.0 0.00 0.00 0.00 92 1028.3
20210624083126 46 290 0.0 0.0 0.00 0.00 0.00 92 1028.2
20210624081752 47 290 0.0 0.0 0.00 0.00 0.00 92 1028.0
20210624074654 47 290 0.0 0.0 0.00 0.00 0.00 92 1027.9
20210624073148 47 290 0.0 0.0 0.00 0.00 0.00 92 1027.8
20210624071656 48 290 0.0 0.0 0.00 0.00 0.00 92 1027.8
20210624070128 48 290 0.0 0.0 0.00 0.00 0.00 92 1027.7
20210624064615 48 290 0.0 0.0 0.00 0.00 0.00 92 1027.6
20210624063048 48 290 0.0 0.0 0.00 0.00 0.00 92 1027.5
20210624061612 49 290 0.0 0.0 0.00 0.00 0.00 91 1027.3
20210624060053 49 290 0.0 0.0 0.00 0.00 0.00 91 1027.3
20210624054529 49 290 0.0 0.0 0.00 0.00 0.00 91 1027.2
20210624053044 50 290 0.0 0.0 0.00 0.00 0.00 91 1027.0
20210624051530 50 290 0.0 0.0 0.00 0.00 0.00 91 1026.9
20210624050026 50 290 0.0 0.0 0.00 0.00 0.00 90 1026.9
20210624044525 51 290 0.0 0.0 0.00 0.00 0.00 90 1026.8
20210624043022 51 290 0.0 0.0 0.00 0.00 0.00 90 1026.8
20210624041522 51 290 0.0 0.0 0.00 0.00 0.00 90 1026.7
20210624040011 52 290 0.0 0.0 0.00 0.00 0.00 90 1026.6
20210624034519 52 290 0.0 0.0 0.00 0.00 0.00 89 1026.5
20210624033008 52 290 0.0 0.0 0.00 0.00 0.00 88 1026.3
20210624031510 53 290 0.0 0.0 0.00 0.00 0.00 88 1026.2
20210624030021 53 290 0.0 0.0 0.00 0.00 0.00 87 1026.0
20210624024503 53 290 0.0 0.0 0.00 0.00 0.00 86 1025.8
20210624023142 54 290 0.0 0.0 0.00 0.00 0.00 85 1025.7
20210624021556 55 290 0.0 0.0 0.00 0.00 0.00 83 1025.8
20210624020149 55 290 0.0 0.0 0.00 0.00 0.00 81 1025.4
20210624014542 56 290 0.0 0.0 0.00 0.00 0.00 79 1025.4
20210624013048 57 290 0.0 0.0 0.00 0.01 0.00 77 1025.0
20210624011515 58 290 0.0 0.0 0.00 0.01 0.00 74 1024.8
20210624010027 59 290 0.0 1.0 0.00 0.01 0.00 72 1024.7
20210624004503 60 291 0.0 0.0 0.00 0.01 0.00 69 1024.5
20210624003155 62 290 0.0 0.0 0.00 0.05 0.00 63 1024.2
20210624001708 63 295 0.0 0.0 0.00 0.05 0.00 59 1024.0
20210624000205 65 295 0.0 1.0 0.00 0.05 0.00 55 1023.8
20210623234955 66 300 0.0 1.0 0.00 0.05 0.00 50 1023.7
20210623233112 66 299 0.0 0.0 0.00 0.09 0.00 50 1023.7
20210623231647 67 302 0.0 1.0 0.00 0.09 0.00 46 1023.5
20210623230052 68 284 0.0 1.0 0.00 0.09 0.00 44 1023.3
20210623224638 70 318 0.0 0.0 0.00 0.09 0.00 42 1023.1
20210623223104 71 318 0.0 2.0 0.00 0.11 0.00 37 1022.9
20210623221554 73 271 0.0 1.0 0.00 0.11 0.00 37 1022.7
20210623220045 72 252 0.0 1.0 0.00 0.11 0.00 36 1022.5
20210623214533 71 302 0.0 1.0 0.00 0.11 0.00 39 1022.5
20210623213109 69 302 0.0 1.0 0.00 0.18 0.00 46 1022.5
20210623211529 70 302 0.0 2.0 0.00 0.18 0.00 39 1022.3
20210623204528 70 273 0.0 1.0 0.00 0.18 0.00 36 1022.1
20210623203022 72 128 0.0 2.0 0.00 0.22 0.00 36 1021.9
20210623201513 72 265 0.0 1.0 0.00 0.22 0.00 35 1022.0
20210623200011 73 220 0.0 2.0 0.00 0.22 0.00 37 1021.8
20210623194515 72 262 0.0 1.0 0.00 0.22 0.00 32 1021.8
20210623193022 73 282 0.0 5.0 0.00 0.22 0.00 32 1021.6
20210623191659 73 224 0.0 2.0 0.00 0.22 0.00 33 1021.6
20210623190107 74 277 0.0 3.0 0.00 0.22 0.00 33 1021.5
20210623184743 74 238 0.0 4.0 0.00 0.22 0.00 35 1021.4
20210623183135 73 224 0.0 5.0 0.00 0.30 0.00 38 1021.3
20210623181625 72 236 0.0 3.0 0.00 0.30 0.00 35 1021.1
20210623180149 71 349 1.0 6.0 0.00 0.30 0.00 37 1021.1
20210623174631 72 277 0.0 4.0 0.00 0.30 0.00 36 1021.1
20210623173140 72 300 0.0 3.0 0.00 0.30 0.00 39 1021.0
20210623170043 70 302 0.0 4.0 0.00 0.30 0.00 40 1021.0
20210623164542 70 313 1.0 3.0 0.00 0.30 0.00 38 1020.8
20210623163044 69 171 0.0 4.0 0.00 0.30 0.00 41 1020.8
20210623161537 69 291 0.0 3.0 0.00 0.30 0.00 42 1020.7
20210623160038 67 25 0.0 3.0 0.00 0.30 0.00 43 1020.6
20210623154519 68 311 0.0 4.0 0.00 0.30 0.00 45 1020.5
20210623153022 65 237 0.0 3.0 0.00 0.30 0.00 49 1020.5
20210623151701 66 343 0.0 4.0 0.00 0.30 0.00 47 1020.4
20210623150324 64 276 1.0 5.0 0.00 0.30 0.00 50 1020.5
20210623144650 64 253 2.0 5.0 0.00 0.30 0.00 47 1020.3
20210623141628 63 29 0.0 4.0 0.00 0.30 0.00 50 1020.0
20210623140111 63 203 0.0 5.0 0.00 0.30 0.00 54 1019.8
20210623134625 62 322 1.0 5.0 0.00 0.30 0.00 55 1019.7
20210623133136 61 301 0.0 4.0 0.00 0.30 0.00 58 1019.7
20210623131600 60 30 0.0 4.0 0.00 0.30 0.00 58 1019.6
20210623130025 59 36 1.0 5.0 0.00 0.30 0.00 60 1019.4
20210623124503 58 226 0.0 2.0 0.00 0.30 0.00 69 1019.1
20210623123136 57 305 0.0 2.0 0.00 0.30 0.00 69 1019.1
20210623121656 56 303 0.0 3.0 0.00 0.30 0.00 74 1018.9
20210623120139 55 309 0.0 2.0 0.00 0.30 0.00 78 1018.8
20210623114636 54 285 0.0 1.0 0.00 0.30 0.00 80 1018.6
20210623113111 53 211 0.0 0.0 0.00 0.30 0.00 84 1018.3
20210623111637 51 250 0.0 0.0 0.00 0.30 0.00 87 1018.0
20210623110112 51 250 0.0 0.0 0.00 0.30 0.00 88 1017.7
20210623104539 50 250 0.0 0.0 0.00 0.30 0.00 90 1017.5
20210623103058 49 250 0.0 1.0 0.00 0.30 0.00 90 1017.3
20210623101556 49 250 0.0 1.0 0.00 0.30 0.00 89 1017.1
20210623100235 49 250 0.0 0.0 0.00 0.30 0.00 90 1016.8